Time;durP1;ratioP1;P1;durP2;ratioP2;P2;SDS_P1;SDS_P2;PMS_P1;PMS_P2;Temp;Humidity;BMP_temperature;BMP_pressure;BME280_temperature;BME280_humidity;BME280_pressure;Samples;Min_cycle;Max_cycle;Signal;HPM_P1;HPM_P2
2022/01/06 00:00:10;;;;;;;9.60;3.03;;;;;;;4.33;66.18;99593.53;10419607;28;20061;-80
2022/01/06 00:05:11;;;;;;;10.88;2.95;;;;;;;4.50;65.62;99594.53;10436086;28;20088;-81
2022/01/06 00:10:14;;;;;;;15.48;3.70;;;;;;;4.39;65.81;99599.28;10435842;28;20090;-80
2022/01/06 00:25:52;;;;;;;15.07;4.30;;;;;;;4.42;65.39;99588.84;10437567;28;20053;-81
2022/01/06 00:30:55;;;;;;;11.90;3.72;;;;;;;4.48;65.03;99598.94;10436520;28;20053;-81
2022/01/06 00:35:57;;;;;;;12.13;4.20;;;;;;;4.56;65.38;99599.47;10434866;28;20081;-81
2022/01/06 00:40:59;;;;;;;11.90;4.57;;;;;;;4.49;65.13;99611.00;10439368;28;20502;-80
2022/01/06 00:46:01;;;;;;;19.17;4.60;;;;;;;4.44;65.65;99596.53;10443093;28;20057;-80
2022/01/06 00:51:03;;;;;;;12.73;4.10;;;;;;;4.43;65.37;99603.44;10443191;28;20155;-80
2022/01/06 00:56:05;;;;;;;14.27;4.25;;;;;;;4.41;65.17;99613.03;10444526;28;20145;-81
2022/01/06 01:01:07;;;;;;;15.52;4.18;;;;;;;4.42;65.41;99619.06;10458928;28;20136;-81
2022/01/06 01:06:09;;;;;;;11.73;3.83;;;;;;;4.32;65.08;99634.13;10443054;28;20059;-80
2022/01/06 01:11:11;;;;;;;14.30;4.00;;;;;;;4.29;65.15;99635.97;10443032;28;20072;-80
2022/01/06 01:16:25;;;;;;;20.65;3.75;;;;;;;4.28;64.85;99640.31;10442532;28;20565;-80
2022/01/06 01:21:28;;;;;;;17.15;4.07;;;;;;;4.30;64.58;99635.91;10443644;28;20057;-81
2022/01/06 01:26:33;;;;;;;17.23;4.45;;;;;;;4.26;64.45;99646.44;10450799;28;20471;-81
2022/01/06 01:31:42;;;;;;;22.02;4.70;;;;;;;4.40;64.54;99647.59;10441093;28;20104;-81
2022/01/06 01:36:44;;;;;;;19.75;4.70;;;;;;;4.43;64.23;99654.41;10443874;28;20092;-80
2022/01/06 01:41:46;;;;;;;20.85;4.47;;;;;;;4.34;64.60;99657.34;10442059;28;20138;-80
2022/01/06 01:47:00;;;;;;;23.48;4.50;;;;;;;4.27;64.58;99680.03;10442278;28;20052;-80
2022/01/06 01:52:02;;;;;;;23.27;5.00;;;;;;;4.29;64.54;99683.41;10441606;28;20056;-81
2022/01/06 01:57:04;;;;;;;19.48;4.75;;;;;;;4.37;64.58;99690.91;10443522;28;20057;-81
2022/01/06 02:02:06;;;;;;;19.73;4.32;;;;;;;4.34;64.44;99694.44;10440680;28;20951;-81
2022/01/06 02:07:08;;;;;;;19.90;6.60;;;;;;;4.21;64.56;99688.03;10441187;28;20467;-80
2022/01/06 02:12:10;;;;;;;19.52;4.63;;;;;;;3.95;64.81;99702.81;10439587;28;20473;-80
2022/01/06 02:17:12;;;;;;;22.70;4.68;;;;;;;3.47;65.32;99701.06;10440597;28;20140;-80
2022/01/06 02:22:14;;;;;;;19.08;4.38;;;;;;;3.55;64.96;99705.97;10440358;28;20628;-81
2022/01/06 02:27:19;;;;;;;18.20;4.40;;;;;;;3.55;65.12;99713.72;10449380;28;20052;-81
2022/01/06 02:32:22;;;;;;;20.27;4.70;;;;;;;3.62;64.69;99712.63;10439948;28;20451;-80
2022/01/06 02:37:24;;;;;;;19.58;4.85;;;;;;;3.76;64.40;99708.63;10440265;28;20056;-80
2022/01/06 02:42:30;;;;;;;23.48;5.15;;;;;;;3.68;64.30;99712.41;10440679;28;20114;-81
2022/01/06 02:47:32;;;;;;;20.83;4.90;;;;;;;3.56;64.56;99712.81;10440552;28;20084;-80
2022/01/06 02:52:34;;;;;;;24.90;5.20;;;;;;;3.47;64.42;99715.72;10456460;28;20562;-80
2022/01/06 02:57:37;;;;;;;24.73;5.10;;;;;;;3.38;64.62;99723.78;10438994;28;20053;-81
2022/01/06 03:02:43;;;;;;;15.15;4.30;;;;;;;3.45;64.53;99725.28;10441360;28;20051;-81
2022/01/06 03:07:46;;;;;;;25.23;4.90;;;;;;;3.46;64.62;99732.97;10444250;28;20057;-81
2022/01/06 03:12:48;;;;;;;23.58;5.05;;;;;;;3.55;64.53;99748.19;10444304;28;20057;-80
2022/01/06 03:17:56;;;;;;;21.88;5.05;;;;;;;3.61;64.49;99744.53;10449054;28;20483;-81
2022/01/06 03:22:58;;;;;;;25.65;5.25;;;;;;;3.66;64.28;99747.81;10445448;28;20057;-81
2022/01/06 03:28:00;;;;;;;23.75;5.63;;;;;;;3.78;64.03;99742.22;10444592;28;20053;-81
2022/01/06 03:33:02;;;;;;;20.98;5.15;;;;;;;3.82;63.82;99754.97;10446830;28;20090;-81
2022/01/06 03:38:04;;;;;;;19.33;5.32;;;;;;;3.73;63.87;99762.22;10446850;28;20060;-81
2022/01/06 03:43:07;;;;;;;21.90;4.90;;;;;;;3.68;63.94;99761.56;10444114;28;20080;-81
2022/01/06 03:48:09;;;;;;;24.00;5.50;;;;;;;3.56;63.95;99782.63;10447558;28;20061;-81
2022/01/06 03:53:10;;;;;;;22.98;5.15;;;;;;;3.47;64.12;99785.53;10449845;28;20159;-81
2022/01/06 03:58:12;;;;;;;19.02;4.63;;;;;;;3.51;64.25;99780.22;10466652;28;20065;-81
2022/01/06 04:03:14;;;;;;;28.98;5.75;;;;;;;3.56;64.14;99790.38;10464668;28;20099;-80
2022/01/06 04:08:16;;;;;;;19.02;4.60;;;;;;;3.50;63.98;99795.75;10461636;28;20060;-80
2022/01/06 04:13:17;;;;;;;19.15;5.18;;;;;;;3.42;63.94;99793.44;10457978;28;20049;-81
2022/01/06 04:18:25;;;;;;;23.15;5.20;;;;;;;3.25;64.58;99790.56;10457549;28;20052;-80
2022/01/06 04:23:27;;;;;;;22.27;5.05;;;;;;;3.17;64.30;99797.72;10440703;28;20057;-81
2022/01/06 04:28:33;;;;;;;21.73;5.28;;;;;;;3.11;64.28;99802.25;10438442;28;20061;-80
2022/01/06 04:33:35;;;;;;;20.25;4.82;;;;;;;2.98;64.74;99819.84;10440041;28;20464;-81
2022/01/06 04:38:37;;;;;;;28.10;5.70;;;;;;;2.89;64.87;99820.97;10438112;28;20061;-81
2022/01/06 04:43:39;;;;;;;21.40;5.40;;;;;;;2.86;65.05;99836.59;10437521;28;20053;-80
2022/01/06 04:48:44;;;;;;;23.17;4.97;;;;;;;2.80;65.36;99849.69;10437141;28;20053;-81
2022/01/06 04:53:45;;;;;;;21.95;4.72;;;;;;;2.78;65.70;99846.28;10448028;28;20045;-81
2022/01/06 04:58:49;;;;;;;29.70;6.30;;;;;;;2.78;66.32;99848.88;10436562;28;20430;-81
2022/01/06 05:03:52;;;;;;;21.42;5.45;;;;;;;2.72;66.62;99854.22;10437503;28;20115;-80
2022/01/06 05:09:01;;;;;;;22.05;5.72;;;;;;;2.70;66.72;99863.72;10438666;28;20403;-81
2022/01/06 05:14:04;;;;;;;29.30;6.25;;;;;;;2.64;66.75;99858.72;10435060;28;20060;-80
2022/01/06 05:19:06;;;;;;;24.60;5.55;;;;;;;2.71;66.98;99869.72;10436844;28;20111;-80
2022/01/06 05:24:13;;;;;;;31.30;10.80;;;;;;;2.72;66.78;99868.84;10439878;28;20087;-81
2022/01/06 05:29:15;;;;;;;54.95;21.05;;;;;;;2.69;66.82;99882.69;10460624;28;20560;-80
2022/01/06 05:34:17;;;;;;;19.83;5.97;;;;;;;2.63;66.76;99880.28;10467122;28;20488;-81
2022/01/06 05:39:19;;;;;;;17.23;4.35;;;;;;;2.52;66.89;99905.53;10464932;28;20115;-81
2022/01/06 05:44:21;;;;;;;16.17;4.60;;;;;;;2.51;67.06;99903.00;10466255;28;20091;-80
2022/01/06 05:49:22;;;;;;;17.30;4.15;;;;;;;2.56;67.03;99919.25;10463564;28;20064;-81
2022/01/06 05:54:26;;;;;;;23.98;5.15;;;;;;;2.70;67.11;99925.69;10461737;28;20594;-81
2022/01/06 05:59:32;;;;;;;19.50;4.45;;;;;;;2.85;67.29;99940.75;10450711;28;20537;-81
2022/01/06 06:04:34;;;;;;;22.17;5.60;;;;;;;2.95;67.14;99939.59;10450215;28;20524;-80
2022/01/06 06:09:36;;;;;;;18.80;4.72;;;;;;;3.03;66.97;99937.66;10448402;28;20080;-81
2022/01/06 06:14:38;;;;;;;18.50;4.82;;;;;;;2.85;67.17;99945.94;10448875;28;20081;-80
2022/01/06 06:19:41;;;;;;;17.00;4.75;;;;;;;2.76;67.12;99955.69;10449575;28;20429;-81
2022/01/06 06:24:44;;;;;;;17.35;5.10;;;;;;;2.63;67.36;99955.16;10453775;28;20087;-80
2022/01/06 06:29:46;;;;;;;19.85;5.70;;;;;;;2.42;67.73;99965.22;10451173;28;20060;-81
2022/01/06 06:34:49;;;;;;;19.25;5.25;;;;;;;2.29;67.70;99969.84;10443913;28;20095;-80
2022/01/06 06:39:54;;;;;;;17.92;5.18;;;;;;;2.20;67.84;99980.41;10456770;28;20059;-81
2022/01/06 06:44:56;;;;;;;21.17;5.97;;;;;;;2.20;67.90;99980.41;10441352;28;20061;-81
2022/01/06 06:49:59;;;;;;;23.45;6.63;;;;;;;2.19;67.84;99989.03;10440394;28;20059;-80
2022/01/06 06:55:01;;;;;;;21.90;6.40;;;;;;;2.09;68.13;99990.16;10439861;28;20103;-80
2022/01/06 07:00:05;;;;;;;22.75;7.22;;;;;;;2.04;68.26;100000.56;10437955;28;20084;-81
2022/01/06 07:05:07;;;;;;;22.83;6.63;;;;;;;2.05;68.17;100004.00;10439267;28;20099;-81
2022/01/06 07:10:09;;;;;;;29.75;9.07;;;;;;;1.93;68.37;100014.63;10440467;28;20593;-82
2022/01/06 07:15:13;;;;;;;21.48;7.47;;;;;;;1.76;68.51;100017.56;10441844;28;20106;-81
2022/01/06 07:20:15;;;;;;;23.45;6.75;;;;;;;1.68;68.41;100037.53;10439423;28;20088;-80
2022/01/06 07:25:17;;;;;;;39.35;9.95;;;;;;;1.80;69.06;100045.00;10440337;28;20063;-81
2022/01/06 07:30:19;;;;;;;35.45;10.18;;;;;;;2.01;68.62;100048.81;10437882;28;20057;-81
2022/01/06 07:35:22;;;;;;;31.70;9.18;;;;;;;2.15;68.48;100057.91;10439332;28;20084;-81
2022/01/06 07:40:24;;;;;;;23.90;7.57;;;;;;;2.07;68.21;100062.38;10429148;28;20088;-81
2022/01/06 07:45:26;;;;;;;30.02;8.60;;;;;;;1.93;68.84;100061.03;10436411;28;20052;-80
2022/01/06 07:50:31;;;;;;;32.72;8.68;;;;;;;1.82;69.37;100079.31;10437518;28;20057;-81
2022/01/06 07:55:33;;;;;;;31.05;7.30;;;;;;;1.95;68.98;100087.63;10437547;28;20970;-81
2022/01/06 08:00:35;;;;;;;23.42;8.00;;;;;;;1.93;69.23;100084.25;10436097;28;20053;-80
2022/01/06 08:05:37;;;;;;;30.38;10.32;;;;;;;1.98;68.79;100106.47;10437061;28;20106;-80
2022/01/06 08:10:39;;;;;;;29.67;9.65;;;;;;;2.00;69.16;100101.25;10437472;28;20065;-81
2022/01/06 08:15:40;;;;;;;30.35;9.40;;;;;;;1.98;69.03;100118.50;10431219;28;20048;-80
2022/01/06 08:20:42;;;;;;;28.13;7.95;;;;;;;2.01;69.24;100123.63;10431311;28;20049;-80
2022/01/06 08:25:44;;;;;;;38.85;10.77;;;;;;;2.03;69.32;100127.00;10432445;28;20048;-80
2022/01/06 08:30:46;;;;;;;52.97;15.57;;;;;;;2.05;69.20;100138.13;10454978;28;20143;-80
2022/01/06 08:35:48;;;;;;;46.92;14.88;;;;;;;2.32;68.84;100147.00;10435394;28;20453;-80
2022/01/06 08:41:05;;;;;;;42.22;13.55;;;;;;;2.49;68.95;100157.75;10434371;28;20056;-80
2022/01/06 08:46:07;;;;;;;29.00;9.48;;;;;;;2.64;68.29;100153.06;10437202;28;20056;-80
2022/01/06 08:51:09;;;;;;;32.28;11.18;;;;;;;2.82;68.37;100138.88;10438554;28;21022;-82
2022/01/06 08:56:14;;;;;;;25.80;10.20;;;;;;;2.91;67.81;100147.22;10437398;28;20056;-82
2022/01/06 09:01:19;;;;;;;25.38;11.10;;;;;;;3.15;67.44;100150.09;10441036;28;20088;-80
2022/01/06 09:06:31;;;;;;;29.58;10.88;;;;;;;3.35;67.44;100155.56;10444822;28;20522;-81
2022/01/06 09:11:35;;;;;;;28.00;10.40;;;;;;;3.62;66.90;100162.59;10446738;28;20120;-80
2022/01/06 09:16:39;;;;;;;26.15;11.32;;;;;;;3.76;66.42;100165.63;10444551;28;20147;-80
2022/01/06 09:21:41;;;;;;;31.23;9.02;;;;;;;3.73;65.53;100156.22;10446135;28;20057;-80
2022/01/06 09:26:43;;;;;;;29.10;9.90;;;;;;;3.68;65.56;100167.59;10445699;28;20148;-80
2022/01/06 09:31:45;;;;;;;29.50;9.50;;;;;;;3.64;65.37;100177.16;10442602;28;20453;-80
2022/01/06 09:36:47;;;;;;;20.63;8.93;;;;;;;3.61;65.30;100184.16;10444555;28;20099;-81
2022/01/06 09:41:49;;;;;;;26.30;8.95;;;;;;;3.83;64.51;100187.84;10443592;28;20399;-85
2022/01/06 09:46:52;;;;;;;26.70;9.10;;;;;;;4.02;64.49;100196.81;10450558;28;20053;-83
2022/01/06 09:51:54;;;;;;;24.02;8.60;;;;;;;4.08;63.74;100199.22;10440329;28;20056;-82
2022/01/06 09:56:55;;;;;;;20.77;8.05;;;;;;;4.04;63.58;100194.16;10437618;28;20057;-83
2022/01/06 10:01:58;;;;;;;25.50;8.60;;;;;;;3.92;63.35;100208.31;10439587;28;20052;-84
2022/01/06 10:07:07;;;;;;;29.17;7.93;;;;;;;3.81;62.91;100203.41;10438411;28;20088;-83
2022/01/06 10:12:13;;;;;;;27.45;8.85;;;;;;;3.95;63.11;100204.78;10433902;28;20061;-83
2022/01/06 10:17:28;;;;;;;27.58;10.48;;;;;;;4.20;62.60;100201.44;10440035;28;20053;-83
2022/01/06 10:22:30;;;;;;;28.88;9.77;;;;;;;4.30;62.08;100200.28;10440245;28;20167;-83
2022/01/06 10:27:32;;;;;;;21.25;8.48;;;;;;;4.48;61.96;100204.91;10440851;28;20057;-82
2022/01/06 10:32:34;;;;;;;24.33;8.85;;;;;;;4.69;61.60;100199.06;10450857;28;20157;-83
2022/01/06 10:37:41;;;;;;;25.20;9.10;;;;;;;4.83;61.44;100206.38;10440114;28;20127;-84
2022/01/06 10:42:47;;;;;;;19.95;6.85;;;;;;;5.85;59.27;100196.81;10440090;28;20095;-82
2022/01/06 10:47:51;;;;;;;25.83;7.80;;;;;;;5.58;59.44;100202.97;10440235;28;20533;-82
2022/01/06 10:52:55;;;;;;;26.83;7.45;;;;;;;5.21;59.30;100205.97;10439094;28;20171;-82
2022/01/06 10:57:58;;;;;;;20.33;7.70;;;;;;;5.00;59.58;100198.06;10438817;28;20063;-82
2022/01/06 11:03:06;;;;;;;26.17;7.90;;;;;;;4.94;59.66;100195.69;10437040;28;20517;-82
2022/01/06 11:08:09;;;;;;;24.30;8.43;;;;;;;4.88;60.18;100194.16;10444864;28;20087;-82
2022/01/06 11:13:12;;;;;;;21.83;7.68;;;;;;;4.94;59.92;100203.44;10436968;28;20483;-81
2022/01/06 11:18:19;;;;;;;20.92;7.20;;;;;;;4.93;59.54;100202.59;10436513;28;20154;-82
2022/01/06 11:23:24;;;;;;;25.63;7.05;;;;;;;4.85;59.83;100198.56;10436585;28;20061;-81
2022/01/06 11:28:30;;;;;;;20.95;7.40;;;;;;;4.80;60.06;100203.88;10430304;28;20498;-82
2022/01/06 11:33:39;;;;;;;28.42;7.85;;;;;;;4.91;59.63;100200.94;10436447;28;20080;-82
2022/01/06 11:38:46;;;;;;;22.27;7.60;;;;;;;4.85;59.58;100204.59;10435133;28;20057;-82
2022/01/06 11:43:49;;;;;;;21.40;6.18;;;;;;;4.94;59.61;100208.63;10435718;28;20096;-82
2022/01/06 11:48:54;;;;;;;22.70;6.53;;;;;;;5.28;59.27;100198.84;10434697;28;20087;-82
2022/01/06 11:53:58;;;;;;;25.95;6.53;;;;;;;5.43;58.70;100201.75;10435667;28;20049;-81
2022/01/06 11:59:04;;;;;;;20.17;5.40;;;;;;;5.27;58.41;100212.69;10410130;28;1187891;-82
2022/01/06 12:04:14;;;;;;;23.40;5.03;;;;;;;5.19;57.38;100207.75;10453649;28;20056;-82
2022/01/06 12:09:21;;;;;;;16.05;5.00;;;;;;;5.21;58.04;100215.47;10451945;28;20977;-82
2022/01/06 12:14:26;;;;;;;24.30;6.22;;;;;;;5.11;57.49;100211.50;10436946;28;20041;-82
2022/01/06 12:19:28;;;;;;;20.35;4.72;;;;;;;5.01;57.88;100212.72;10435595;28;20115;-82
2022/01/06 12:24:30;;;;;;;16.55;4.10;;;;;;;4.82;57.13;100203.84;10435631;28;20154;-82
2022/01/06 12:29:38;;;;;;;18.05;4.40;;;;;;;4.76;57.65;100209.22;10437836;28;20049;-82
2022/01/06 12:34:40;;;;;;;17.50;4.63;;;;;;;4.75;57.92;100212.69;10444655;28;20576;-82
2022/01/06 12:39:46;;;;;;;25.98;5.40;;;;;;;4.83;57.72;100205.53;10468678;28;20060;-83
2022/01/06 12:44:49;;;;;;;17.73;4.93;;;;;;;4.66;58.25;100199.13;10469341;28;20924;-82
2022/01/06 12:50:02;;;;;;;19.13;5.97;;;;;;;4.42;58.67;100199.91;10473317;28;20506;-84
2022/01/06 12:55:09;;;;;;;17.25;5.10;;;;;;;4.26;59.29;100198.69;10472165;28;20506;-82
2022/01/06 13:00:12;;;;;;;17.17;5.25;;;;;;;4.19;59.33;100191.97;10482619;28;20127;-82
2022/01/06 13:05:14;;;;;;;23.00;6.05;;;;;;;4.28;59.71;100190.84;10469324;28;20073;-82
2022/01/06 13:10:17;;;;;;;21.60;5.00;;;;;;;4.38;59.13;100193.13;10469725;28;20061;-83
2022/01/06 13:15:30;;;;;;;21.90;5.28;;;;;;;4.47;58.71;100189.41;10445580;28;20222;-82
2022/01/06 13:20:37;;;;;;;21.08;4.57;;;;;;;4.51;58.74;100188.41;10444830;28;20103;-82
2022/01/06 13:25:39;;;;;;;16.80;4.72;;;;;;;4.73;58.64;100192.03;10469290;28;20422;-82
2022/01/06 13:30:49;;;;;;;19.35;4.93;;;;;;;4.92;58.21;100203.50;10464815;28;20087;-82
2022/01/06 13:35:54;;;;;;;17.73;5.05;;;;;;;4.90;57.72;100199.25;10474600;28;20053;-81
2022/01/06 13:41:04;;;;;;;16.40;4.45;;;;;;;4.84;57.38;100199.47;10467378;28;20063;-82
2022/01/06 13:46:14;;;;;;;17.52;4.57;;;;;;;4.65;58.03;100206.97;10474205;28;20064;-82
2022/01/06 13:51:18;;;;;;;21.90;5.22;;;;;;;4.46;58.01;100205.84;10463447;28;20087;-83
2022/01/06 13:56:32;;;;;;;18.88;4.88;;;;;;;4.39;58.04;100206.94;10470841;28;20048;-81
2022/01/06 14:01:34;;;;;;;15.85;4.90;;;;;;;4.37;58.56;100203.53;10471583;28;20056;-82
2022/01/06 14:06:36;;;;;;;20.88;4.95;;;;;;;4.33;58.31;100204.53;10468363;28;20866;-82
2022/01/06 14:11:38;;;;;;;22.98;5.50;;;;;;;4.34;58.41;100203.63;10465431;28;20057;-82
2022/01/06 14:16:40;;;;;;;19.88;5.22;;;;;;;4.29;58.13;100216.69;10461796;28;20053;-82
2022/01/06 14:21:42;;;;;;;20.85;5.70;;;;;;;4.31;58.40;100217.50;10462659;28;20056;-82
2022/01/06 14:26:44;;;;;;;26.00;5.25;;;;;;;4.16;58.59;100227.47;10461330;28;20053;-82
2022/01/06 14:31:46;;;;;;;22.95;6.20;;;;;;;4.11;59.25;100219.81;10468002;28;20057;-82
2022/01/06 14:36:48;;;;;;;20.13;5.80;;;;;;;4.24;59.31;100216.00;10468767;28;20061;-82
2022/01/06 14:41:50;;;;;;;18.38;5.85;;;;;;;4.44;59.78;100228.34;10463359;28;20609;-82
2022/01/06 14:46:51;;;;;;;19.20;6.25;;;;;;;4.61;59.34;100221.75;10463033;28;20045;-82
2022/01/06 14:51:55;;;;;;;23.85;5.97;;;;;;;4.70;59.31;100216.28;10468099;28;20080;-81
2022/01/06 14:56:57;;;;;;;43.60;13.10;;;;;;;4.75;59.38;100223.06;10481679;22;20052;-65
2022/01/06 15:01:59;;;;;;;33.20;9.30;;;;;;;4.85;59.11;100232.25;10470456;28;20143;-65
2022/01/06 15:07:02;;;;;;;18.77;5.50;;;;;;;4.92;58.90;100232.03;10469725;28;20051;-65
2022/01/06 15:12:05;;;;;;;21.80;5.95;;;;;;;4.97;58.20;100239.63;10470622;28;20052;-64
2022/01/06 15:17:07;;;;;;;18.00;4.95;;;;;;;4.86;58.44;100228.78;10470278;28;20060;-65
2022/01/06 15:22:09;;;;;;;15.82;4.82;;;;;;;4.63;58.29;100235.53;10469832;28;20067;-64
2022/01/06 15:27:11;;;;;;;13.38;5.28;;;;;;;4.45;59.03;100254.22;10470559;28;20062;-65
2022/01/06 15:32:13;;;;;;;20.35;5.13;;;;;;;4.35;59.00;100251.94;10470313;28;20544;-65
2022/01/06 15:37:15;;;;;;;19.33;5.22;;;;;;;4.20;59.60;100262.72;10469025;28;20496;-65
2022/01/06 15:42:16;;;;;;;25.58;7.47;;;;;;;4.00;60.17;100262.44;10470889;28;20423;-65
2022/01/06 15:47:18;;;;;;;20.55;6.40;;;;;;;3.82;60.65;100274.09;10469500;28;20056;-65
2022/01/06 15:52:20;;;;;;;16.58;7.15;;;;;;;3.71;60.82;100273.53;10468886;28;20072;-65
2022/01/06 15:57:21;;;;;;;16.92;5.60;;;;;;;3.59;60.84;100272.13;10469153;28;20083;-65
2022/01/06 16:07:48;;;;;;;22.70;6.70;;;;;;;3.31;61.00;100285.78;10468663;28;20507;-64
2022/01/06 16:12:50;;;;;;;22.67;7.68;;;;;;;3.19;61.52;100293.84;10468823;28;20139;-65
2022/01/06 16:17:52;;;;;;;21.67;8.90;;;;;;;3.14;62.52;100288.78;10467423;28;20466;-65
2022/01/06 16:22:54;;;;;;;25.15;9.55;;;;;;;3.13;62.22;100294.81;10468023;28;20143;-65
2022/01/06 16:27:56;;;;;;;25.52;9.27;;;;;;;3.25;62.38;100291.97;10468881;28;20059;-65
2022/01/06 16:32:59;;;;;;;23.38;9.15;;;;;;;3.28;62.62;100298.78;10468271;28;20060;-65
2022/01/06 16:38:01;;;;;;;22.15;7.88;;;;;;;3.28;62.58;100293.59;10467668;28;20227;-65
2022/01/06 16:43:03;;;;;;;18.92;7.22;;;;;;;3.14;62.34;100300.84;10468392;28;20072;-64
2022/01/06 16:48:06;;;;;;;19.90;7.47;;;;;;;2.92;62.69;100298.78;10467100;28;20056;-65
2022/01/06 16:53:08;;;;;;;17.05;6.20;;;;;;;2.78;62.78;100297.38;10468108;28;20126;-65
2022/01/06 16:58:13;;;;;;;19.65;5.97;;;;;;;2.59;63.26;100302.09;10467353;28;20072;-64
2022/01/06 17:03:15;;;;;;;23.73;7.85;;;;;;;2.41;63.87;100299.91;10467639;28;20056;-66
2022/01/06 17:08:16;;;;;;;28.40;11.10;;;;;;;2.30;64.08;100294.09;10467421;28;20052;-65
2022/01/06 17:13:19;;;;;;;25.10;10.50;;;;;;;2.21;64.21;100302.03;10467516;28;20060;-65
2022/01/06 17:18:21;;;;;;;18.73;9.35;;;;;;;2.10;64.82;100306.56;10467274;28;20059;-65
2022/01/06 17:23:22;;;;;;;18.92;9.27;;;;;;;1.99;65.10;100295.63;10472871;28;20059;-65
2022/01/06 17:28:24;;;;;;;22.33;9.48;;;;;;;1.90;65.29;100303.50;10474731;28;20044;-65
2022/01/06 17:33:26;;;;;;;28.73;11.10;;;;;;;1.79;65.22;100308.00;10474184;28;20059;-66
2022/01/06 17:38:27;;;;;;;25.40;8.40;;;;;;;1.67;65.48;100303.06;10474393;28;20060;-64
2022/01/06 17:43:29;;;;;;;31.80;12.82;;;;;;;1.59;65.74;100310.09;10475063;28;20140;-65
2022/01/06 17:48:31;;;;;;;24.00;10.23;;;;;;;1.49;66.01;100303.38;10473889;28;20401;-65
2022/01/06 17:53:33;;;;;;;18.17;7.10;;;;;;;1.46;66.11;100311.19;10473692;28;20048;-65
2022/01/06 17:58:35;;;;;;;17.95;7.63;;;;;;;1.35;66.16;100313.94;10473282;28;20424;-65
2022/01/06 18:03:37;;;;;;;20.48;7.72;;;;;;;1.27;66.57;100311.50;10455610;28;20813;-64
2022/01/06 18:08:52;;;;;;;24.98;10.38;;;;;;;1.20;66.57;100296.13;10473390;28;20047;-65
2022/01/06 18:13:57;;;;;;;25.50;9.50;;;;;;;1.09;66.61;100314.38;10472633;28;20135;-64
2022/01/06 18:19:00;;;;;;;25.75;8.88;;;;;;;0.96;66.56;100317.97;10472794;28;20058;-65
2022/01/06 18:24:02;;;;;;;19.80;7.60;;;;;;;0.82;67.01;100308.75;10472334;28;20052;-65
2022/01/06 18:29:05;;;;;;;19.27;7.85;;;;;;;0.77;67.08;100308.81;10471897;28;20048;-65
2022/01/06 18:34:07;;;;;;;21.80;7.85;;;;;;;0.76;66.98;100314.00;10471143;28;20389;-65
2022/01/06 18:39:09;;;;;;;24.20;8.10;;;;;;;0.59;67.26;100306.50;10472090;28;20087;-65
2022/01/06 18:44:11;;;;;;;17.23;8.25;;;;;;;0.59;67.03;100303.09;10472170;28;20063;-64
2022/01/06 18:49:13;;;;;;;26.80;9.20;;;;;;;0.47;67.23;100304.94;10471297;28;20564;-64
2022/01/06 18:54:14;;;;;;;21.80;10.57;;;;;;;0.47;67.18;100301.50;10471626;28;20139;-64
2022/01/06 18:59:16;;;;;;;26.55;12.35;;;;;;;0.38;67.34;100314.50;10470408;28;20415;-65
2022/01/06 19:04:18;;;;;;;29.13;13.20;;;;;;;0.37;67.51;100305.94;10470771;28;20067;-64
2022/01/06 19:09:20;;;;;;;34.45;14.52;;;;;;;0.35;67.58;100306.81;10470892;28;20052;-64
2022/01/06 19:14:41;;;;;;;;;;;;;;;0.07;68.28;100313.16;10470739;28;20048;-64
2022/01/06 19:19:43;;;;;;;25.10;9.73;;;;;;;0.11;67.95;100313.13;10470125;28;20360;-65
2022/01/06 19:24:45;;;;;;;23.25;9.15;;;;;;;0.14;67.56;100307.06;10452520;28;20135;-64
2022/01/06 19:29:46;;;;;;;25.70;8.77;;;;;;;-0.08;67.80;100313.31;10451655;28;20088;-64
2022/01/06 19:35:09;;;;;;;;;;;;;;;-0.34;68.41;100309.31;10470147;28;20062;-64
2022/01/06 19:40:11;;;;;;;22.75;8.30;;;;;;;-0.32;68.07;100315.28;10469632;28;19928;-64
2022/01/06 19:45:15;;;;;;;20.38;8.30;;;;;;;-0.25;68.11;100308.38;10468870;28;20058;-64
2022/01/06 19:50:18;;;;;;;24.20;9.15;;;;;;;-0.25;68.04;100307.53;10469768;28;20160;-64
2022/01/06 19:55:20;;;;;;;30.52;11.85;;;;;;;-0.32;68.28;100302.44;10451093;28;20060;-64
2022/01/06 20:00:24;;;;;;;22.30;9.57;;;;;;;-0.28;68.11;100305.81;10469044;28;20048;-65
2022/01/06 20:05:26;;;;;;;25.02;9.32;;;;;;;-0.26;68.27;100311.81;10469006;28;20057;-65
2022/01/06 20:10:28;;;;;;;23.27;9.88;;;;;;;-0.27;67.99;100299.84;10468801;28;20135;-64
2022/01/06 20:15:30;;;;;;;24.42;10.73;;;;;;;-0.31;68.12;100309.28;10469705;28;20247;-65
2022/01/06 20:20:33;;;;;;;31.13;10.98;;;;;;;-0.39;68.11;100300.78;10469220;28;20144;-65
2022/01/06 20:25:34;;;;;;;24.13;10.05;;;;;;;-0.43;68.34;100300.81;10468035;28;20056;-65
2022/01/06 20:30:37;;;;;;;21.88;9.20;;;;;;;-0.43;68.21;100293.97;10469242;28;20083;-65
2022/01/06 20:35:39;;;;;;;21.60;8.50;;;;;;;-0.46;68.32;100296.59;10467882;28;20617;-65
2022/01/06 20:40:42;;;;;;;31.02;11.13;;;;;;;-0.49;68.24;100286.31;10468623;28;20137;-64
2022/01/06 20:45:44;;;;;;;21.40;9.15;;;;;;;-0.52;68.23;100293.22;10468045;28;20137;-65
2022/01/06 20:56:07;;;;;;;36.47;12.30;;;;;;;-0.63;68.34;100303.59;10466641;28;20587;-65
2022/01/06 21:01:09;;;;;;;31.77;11.38;;;;;;;-0.64;68.40;100296.75;10441234;28;20776;-64
2022/01/06 21:06:11;;;;;;;53.10;14.95;;;;;;;-0.63;68.61;100298.44;10475228;28;20060;-65
2022/01/06 21:11:13;;;;;;;35.03;12.23;;;;;;;-0.70;68.52;100294.25;10475179;28;20064;-65
2022/01/06 21:16:14;;;;;;;27.65;12.05;;;;;;;-0.69;68.59;100295.94;10453515;28;20060;-65
2022/01/06 21:21:20;;;;;;;53.97;13.27;;;;;;;-0.66;68.49;100288.22;10474148;28;20063;-64
2022/01/06 21:26:24;;;;;;;142.40;17.55;;;;;;;-0.69;68.73;100285.66;10472757;28;20060;-65
2022/01/06 21:31:25;;;;;;;28.10;10.75;;;;;;;-0.71;68.55;100284.81;10471864;28;20424;-65
2022/01/06 21:36:27;;;;;;;60.35;14.25;;;;;;;-0.71;68.44;100276.25;10472983;28;20092;-65
2022/01/06 21:41:29;;;;;;;50.78;13.40;;;;;;;-0.82;68.51;100257.53;10472942;28;20067;-65
2022/01/06 21:46:31;;;;;;;34.08;13.18;;;;;;;-0.83;68.62;100259.25;10473855;28;20056;-64
2022/01/06 21:51:34;;;;;;;132.07;15.25;;;;;;;-0.85;68.49;100257.56;10474105;28;20086;-64
2022/01/06 21:56:36;;;;;;;37.50;11.05;;;;;;;-0.88;68.59;100255.03;10471226;28;20062;-64
2022/01/06 22:01:37;;;;;;;71.90;15.30;;;;;;;-0.90;68.50;100260.16;10473726;28;20052;-64
2022/01/06 22:06:40;;;;;;;213.25;19.27;;;;;;;-0.88;68.54;100244.75;10473009;28;20048;-65
2022/01/06 22:11:43;;;;;;;328.55;22.13;;;;;;;-0.91;68.50;100230.22;10473729;28;20048;-64
2022/01/06 22:16:45;;;;;;;89.10;15.32;;;;;;;-0.89;68.46;100220.78;10473173;28;20096;-64
2022/01/06 22:21:47;;;;;;;214.32;17.90;;;;;;;-0.91;68.61;100216.53;10473277;28;20102;-64
2022/01/06 22:26:49;;;;;;;438.17;21.73;;;;;;;-1.02;68.69;100214.06;10473257;28;20551;-64
2022/01/06 22:31:50;;;;;;;561.58;27.23;;;;;;;-1.03;68.79;100204.66;10472672;28;20411;-64
2022/01/06 22:36:52;;;;;;;558.80;28.20;;;;;;;-1.03;68.92;100204.66;10454728;28;20063;-64
2022/01/06 22:41:54;;;;;;;459.65;23.55;;;;;;;-1.06;68.92;100193.59;10472029;28;20051;-65
2022/01/06 22:47:00;;;;;;;266.63;18.15;;;;;;;-1.16;69.12;100203.06;10472394;28;20056;-66
2022/01/06 22:52:02;;;;;;;287.52;20.17;;;;;;;-1.21;69.00;100205.66;10454324;28;20080;-65
2022/01/06 22:57:08;;;;;;;25.88;12.25;;;;;;;-1.09;69.19;100203.84;10470972;28;20056;-66
2022/01/06 23:02:10;;;;;;;26.90;12.02;;;;;;;-0.96;69.00;100200.34;10466716;28;20669;-65
2022/01/06 23:07:12;;;;;;;48.17;12.32;;;;;;;-0.90;68.93;100198.53;10451603;28;20640;-66
2022/01/06 23:12:13;;;;;;;44.95;12.80;;;;;;;-0.94;68.88;100189.16;10470091;28;20059;-65
2022/01/06 23:17:16;;;;;;;28.23;12.10;;;;;;;-0.82;68.78;100186.47;10468860;28;20066;-65
2022/01/06 23:22:17;;;;;;;19.92;11.18;;;;;;;-0.74;68.66;100183.84;10469581;28;20063;-65
2022/01/06 23:27:20;;;;;;;18.45;11.15;;;;;;;-0.70;68.37;100185.53;10469675;28;20175;-65
2022/01/06 23:32:24;;;;;;;98.70;15.20;;;;;;;-0.66;68.28;100171.78;10468086;28;20571;-65